createdAt,value
2023-02-11T00:03:50.084Z,70.40
2023-02-11T00:09:51.987Z,70.65
2023-02-11T00:15:55.437Z,72.97
2023-02-11T00:21:57.282Z,72.25
2023-02-11T00:27:59.208Z,70.53
2023-02-11T00:34:01.158Z,74.57
2023-02-11T00:40:06.952Z,75.40
2023-02-11T00:46:09.462Z,71.47
2023-02-11T00:52:11.365Z,70.43
2023-02-11T00:58:13.256Z,69.10
2023-02-11T01:04:16.586Z,76.25
2023-02-11T01:10:18.637Z,74.53
2023-02-11T01:16:29.470Z,79.25
2023-02-11T01:22:31.403Z,75.70
2023-02-11T01:28:33.658Z,72.45
2023-02-11T01:34:35.571Z,66.13
2023-02-11T01:40:37.402Z,75.15
2023-02-11T01:46:39.342Z,73.50
2023-02-11T01:52:42.614Z,74.60
2023-02-11T01:58:47.653Z,78.25
2023-02-11T02:05:28.184Z,73.55
2023-02-11T02:11:30.355Z,78.10
2023-02-11T02:17:42.418Z,82.07
2023-02-11T02:24:01.967Z,79.57
2023-02-11T02:30:25.548Z,74.90
2023-02-11T02:37:02.746Z,79.78
2023-02-11T02:43:07.454Z,79.20
2023-02-11T02:49:17.091Z,84.63
2023-02-11T02:55:34.894Z,85.65
2023-02-11T03:08:08.480Z,80.15
2023-02-11T03:14:14.637Z,81.97
2023-02-11T03:20:18.944Z,80.45
2023-02-11T03:26:26.310Z,85.43
2023-02-11T03:32:34.929Z,87.65
2023-02-11T03:38:43.661Z,79.85
2023-02-11T03:44:59.293Z,86.05
2023-02-11T03:51:05.235Z,80.03
2023-02-11T03:57:07.530Z,84.80
2023-02-11T04:03:11.433Z,79.90
2023-02-11T04:09:13.356Z,94.65
2023-02-11T04:15:15.489Z,87.93
2023-02-11T04:21:17.365Z,84.15
2023-02-11T04:27:19.262Z,80.50
2023-02-11T04:33:21.143Z,86.72
2023-02-11T04:39:23.111Z,83.07
2023-02-11T04:45:24.971Z,83.65
2023-02-11T04:51:26.837Z,79.57
2023-02-11T04:57:28.644Z,86.97
2023-02-11T05:03:30.398Z,85.15
2023-02-11T05:09:32.298Z,89.07
2023-02-11T05:15:34.133Z,86.88
2023-02-11T05:21:36.099Z,83.55
2023-02-11T05:27:37.889Z,87.97
2023-02-11T05:33:39.982Z,92.25
2023-02-11T05:39:41.814Z,87.88
2023-02-11T05:45:43.614Z,88.78
2023-02-11T05:51:45.670Z,89.57
2023-02-11T05:57:47.648Z,92.85
2023-02-11T06:03:51.305Z,85.22
2023-02-11T06:09:53.160Z,90.85
2023-02-11T06:16:02.378Z,100.13
2023-02-11T06:22:04.214Z,91.82
2023-02-11T06:28:06.144Z,91.05
2023-02-11T06:34:09.724Z,88.07
2023-02-11T06:40:12.598Z,97.97
2023-02-11T06:46:14.852Z,94.72
2023-02-11T06:52:17.569Z,104.40
2023-02-11T06:58:19.330Z,100.80
2023-02-11T07:04:21.998Z,94.93
2023-02-11T07:10:23.830Z,97.63
2023-02-11T07:16:25.646Z,100.57
2023-02-11T07:22:27.701Z,97.50
2023-02-11T07:28:29.727Z,103.20
2023-02-11T07:34:31.486Z,103.60
2023-02-11T07:40:33.231Z,106.82
2023-02-11T07:46:35.726Z,97.40
2023-02-11T07:52:37.593Z,102.15
2023-02-11T07:58:42.116Z,96.45
2023-02-11T08:04:46.237Z,96.70
2023-02-11T08:10:48.129Z,99.75
2023-02-11T08:16:50.104Z,107.50
2023-02-11T08:22:51.975Z,97.13
2023-02-11T08:28:55.974Z,101.57
2023-02-11T08:34:57.825Z,97.47
2023-02-11T08:41:00.664Z,93.88
2023-02-11T08:47:02.522Z,94.32
2023-02-11T08:53:04.896Z,93.75
2023-02-11T08:59:07.698Z,93.15
2023-02-11T09:05:09.587Z,90.80
2023-02-11T09:11:11.699Z,86.03
2023-02-11T09:17:13.563Z,92.15
2023-02-11T09:23:17.611Z,90.25
2023-02-11T09:29:20.399Z,87.60
2023-02-11T09:35:22.300Z,86.30
2023-02-11T09:41:24.006Z,82.15
2023-02-11T09:47:31.440Z,86.78
2023-02-11T09:53:41.109Z,85.43
2023-02-11T09:59:43.407Z,79.50
2023-02-11T10:06:20.202Z,79.95
2023-02-11T10:12:45.695Z,79.97
2023-02-11T10:19:08.656Z,76.07
2023-02-11T10:25:24.007Z,79.07
2023-02-11T10:31:42.089Z,72.45
2023-02-11T10:37:44.801Z,67.22
2023-02-11T10:43:46.652Z,68.53
2023-02-11T10:49:49.600Z,70.18
2023-02-11T10:55:57.373Z,73.80
2023-02-11T11:02:21.387Z,65.75
2023-02-11T11:08:43.429Z,63.30
2023-02-11T11:14:58.854Z,58.40
2023-02-11T11:21:03.464Z,57.83
2023-02-11T11:27:06.270Z,63.53
2023-02-11T11:33:31.172Z,67.38
2023-02-11T11:39:34.908Z,62.95
2023-02-11T11:45:36.759Z,56.90
2023-02-11T11:51:44.281Z,54.38
2023-02-11T11:57:46.239Z,55.53
2023-02-11T12:04:25.291Z,52.03
2023-02-11T12:10:35.101Z,52.72
2023-02-11T12:16:45.885Z,50.47
2023-02-11T12:23:26.183Z,52.72
2023-02-11T12:29:52.200Z,48.90
2023-02-11T12:36:08.445Z,46.40
2023-02-11T12:42:53.130Z,43.80
2023-02-11T12:49:01.141Z,38.03
2023-02-11T12:55:19.012Z,36.80
2023-02-11T13:01:31.969Z,42.75
2023-02-11T13:07:40.657Z,41.92
2023-02-11T13:13:45.455Z,41.00
2023-02-11T13:20:12.624Z,43.00
2023-02-11T13:26:58.437Z,37.42
2023-02-11T13:33:03.243Z,34.30
2023-02-11T13:39:06.461Z,35.58
2023-02-11T13:45:28.617Z,39.85
2023-02-11T13:51:39.339Z,39.75
2023-02-11T13:57:41.807Z,38.80
2023-02-11T14:04:41.468Z,33.72
2023-02-11T14:10:43.241Z,36.78
2023-02-11T14:17:00.766Z,38.30
2023-02-11T14:23:04.753Z,41.78
2023-02-11T14:29:18.446Z,52.00
2023-02-11T14:35:49.830Z,50.38
2023-02-11T14:41:52.592Z,54.03
2023-02-11T14:48:08.357Z,56.65
2023-02-11T14:54:22.679Z,59.30
2023-02-11T15:00:24.854Z,69.00
2023-02-11T15:06:31.871Z,70.95
2023-02-11T15:12:35.513Z,73.93
2023-02-11T15:18:41.999Z,66.20
2023-02-11T15:24:44.091Z,75.03
2023-02-11T15:30:45.911Z,71.88
2023-02-11T15:36:49.427Z,78.85
2023-02-11T15:43:00.286Z,76.00
2023-02-11T15:49:02.555Z,69.32
2023-02-11T15:55:04.695Z,72.68
2023-02-11T16:01:07.809Z,69.28
2023-02-11T16:07:43.959Z,70.63
2023-02-11T16:13:47.571Z,69.63
2023-02-11T16:19:51.798Z,78.35
2023-02-11T16:26:22.816Z,82.55
2023-02-11T16:32:29.704Z,73.25
2023-02-11T16:38:32.575Z,71.97
2023-02-11T16:44:34.874Z,73.70
2023-02-11T16:50:36.956Z,72.68
2023-02-11T16:56:38.845Z,71.97
2023-02-11T17:02:40.985Z,71.22
2023-02-11T17:08:44.404Z,67.97
2023-02-11T17:14:46.156Z,68.88
2023-02-11T17:20:47.963Z,72.90
2023-02-11T17:26:50.201Z,82.47
2023-02-11T17:32:52.310Z,78.60
2023-02-11T17:38:55.330Z,84.03
2023-02-11T17:44:57.108Z,84.95
2023-02-11T17:50:58.924Z,90.10
2023-02-11T17:57:00.928Z,88.28
2023-02-11T18:03:03.401Z,85.30
2023-02-11T18:09:05.373Z,89.85
2023-02-11T18:15:07.469Z,89.93
2023-02-11T18:21:28.151Z,89.57
2023-02-11T18:27:30.274Z,87.10
2023-02-11T18:33:32.184Z,100.93
2023-02-11T18:39:34.073Z,97.00
2023-02-11T18:45:36.113Z,92.10
2023-02-11T18:51:38.073Z,90.20
2023-02-11T18:57:40.025Z,90.80
2023-02-11T19:03:42.728Z,95.18
2023-02-11T19:09:44.717Z,88.85
2023-02-11T19:15:47.377Z,97.00
2023-02-11T19:21:49.792Z,90.25
2023-02-11T19:27:51.703Z,94.05
2023-02-11T19:33:53.553Z,93.47
2023-02-11T19:39:55.351Z,98.03
2023-02-11T19:45:57.668Z,93.13
2023-02-11T19:51:59.584Z,103.25
2023-02-11T19:58:03.019Z,103.32
2023-02-11T20:04:05.661Z,99.47
2023-02-11T20:10:08.356Z,107.30
2023-02-11T20:16:16.873Z,102.32
2023-02-11T20:22:18.718Z,107.88
2023-02-11T20:28:20.663Z,111.35
2023-02-11T20:34:22.517Z,125.68
2023-02-11T20:40:24.382Z,115.30
2023-02-11T20:46:46.641Z,130.30
2023-02-11T20:52:48.550Z,134.82
2023-02-11T20:58:51.544Z,142.60
2023-02-11T21:04:53.401Z,142.02
2023-02-11T21:10:55.347Z,154.68
2023-02-11T21:16:57.634Z,156.75
2023-02-11T21:22:59.418Z,147.57
2023-02-11T21:29:02.336Z,151.57
2023-02-11T21:35:04.373Z,140.55
2023-02-11T21:41:06.505Z,131.75
2023-02-11T21:47:08.329Z,128.13
2023-02-11T21:53:10.730Z,141.23
2023-02-11T21:59:17.809Z,133.85
2023-02-11T22:05:20.804Z,143.30
2023-02-11T22:11:23.084Z,148.82
2023-02-11T22:17:26.960Z,149.65
2023-02-11T22:23:29.684Z,144.55
2023-02-11T22:29:31.459Z,141.70
2023-02-11T22:35:34.533Z,138.02
2023-02-11T22:41:38.218Z,153.65
2023-02-11T22:47:40.020Z,151.90
2023-02-11T22:53:43.657Z,152.85
2023-02-11T22:59:48.950Z,142.52
2023-02-11T23:05:50.760Z,151.52
2023-02-11T23:11:54.415Z,134.20
2023-02-11T23:17:56.287Z,134.15
2023-02-11T23:24:04.629Z,137.20
2023-02-11T23:30:07.002Z,148.02
2023-02-11T23:36:09.099Z,135.20
2023-02-11T23:42:12.015Z,126.57
2023-02-11T23:48:13.788Z,144.35
2023-02-11T23:54:15.940Z,130.80
